createdAt,value
2022-08-02T00:01:06.546Z,96624.34
2022-08-02T00:03:34.907Z,96626.00
2022-08-02T00:06:05.489Z,96626.71
2022-08-02T00:08:33.873Z,96626.68
2022-08-02T00:11:43.139Z,96624.73
2022-08-02T00:14:13.438Z,96625.07
2022-08-02T00:16:43.580Z,96626.75
2022-08-02T00:19:12.456Z,96625.73
2022-08-02T00:21:40.895Z,96622.66
2022-08-02T00:24:28.701Z,96626.59
2022-08-02T00:26:59.792Z,96623.83
2022-08-02T00:29:32.613Z,96624.30
2022-08-02T00:32:01.097Z,96618.33
2022-08-02T00:34:32.028Z,96623.45
2022-08-02T00:37:03.386Z,96623.35
2022-08-02T00:39:34.370Z,96627.73
2022-08-02T00:42:04.917Z,96628.73
2022-08-02T00:44:33.078Z,96630.55
2022-08-02T00:47:01.712Z,96628.49
2022-08-02T00:49:30.197Z,96629.16
2022-08-02T00:51:58.502Z,96626.96
2022-08-02T00:54:26.800Z,96626.73
2022-08-02T00:56:55.053Z,96624.73
2022-08-02T00:59:23.376Z,96621.30
2022-08-02T01:01:57.628Z,96620.86
2022-08-02T02:29:25.723Z,96607.33
2022-08-02T02:31:57.087Z,96608.96
2022-08-02T02:34:32.495Z,96608.19
2022-08-02T02:37:05.075Z,96611.64
2022-08-02T02:39:35.092Z,96613.73
2022-08-02T02:42:09.404Z,96622.32
2022-08-02T02:44:39.983Z,96619.60
2022-08-02T02:47:11.714Z,96623.83
2022-08-02T02:49:41.242Z,96614.05
2022-08-02T02:52:10.956Z,96613.07
2022-08-02T02:54:40.189Z,96611.66
2022-08-02T02:57:09.355Z,96616.84
2022-08-02T02:59:49.418Z,96620.29
2022-08-02T03:02:20.156Z,96622.51
2022-08-02T03:04:55.674Z,96617.92
2022-08-02T03:07:27.218Z,96616.27
2022-08-02T03:09:55.536Z,96613.04
2022-08-02T03:12:30.596Z,96616.58
2022-08-02T03:15:02.066Z,96617.48
2022-08-02T03:17:44.251Z,96619.26
2022-08-02T03:20:18.149Z,96621.89
2022-08-02T03:22:47.130Z,96633.55
2022-08-02T03:25:17.358Z,96633.66
2022-08-02T03:27:46.814Z,96629.41
2022-08-02T03:30:15.669Z,96637.66
2022-08-02T03:32:47.096Z,96636.92
2022-08-02T03:35:23.317Z,96635.52
2022-08-02T03:37:56.143Z,96639.20
2022-08-02T03:40:25.795Z,96640.18
2022-08-02T03:42:55.198Z,96646.41
2022-08-02T03:45:25.990Z,96643.23
2022-08-02T03:47:54.219Z,96644.38
2022-08-02T03:50:28.470Z,96644.58
2022-08-02T03:52:57.307Z,96646.79
2022-08-02T03:55:26.228Z,96649.33
2022-08-02T03:57:54.771Z,96655.41
2022-08-02T04:00:23.704Z,96659.88
2022-08-02T04:02:52.161Z,96659.38
2022-08-02T04:05:21.046Z,96657.09
2022-08-02T04:08:33.621Z,96665.44
2022-08-02T04:10:56.333Z,96664.77
2022-08-02T04:13:34.445Z,96665.79
2022-08-02T04:16:14.165Z,96666.29
2022-08-02T04:18:59.146Z,96665.60
2022-08-02T04:21:49.000Z,96668.02
2022-08-02T04:24:28.775Z,96674.28
2022-08-02T04:27:06.397Z,96679.67
2022-08-02T04:29:48.286Z,96681.42
2022-08-02T04:32:18.348Z,96678.86
2022-08-02T04:35:11.160Z,96675.79
2022-08-02T04:37:37.459Z,96677.70
2022-08-02T04:40:15.760Z,96682.17
2022-08-02T04:42:44.101Z,96680.95
2022-08-02T04:45:16.717Z,96680.08
2022-08-02T04:48:03.311Z,96677.11
2022-08-02T04:50:33.279Z,96676.10
2022-08-02T04:53:02.178Z,96672.33
2022-08-02T04:55:30.361Z,96678.45
2022-08-02T04:57:59.791Z,96680.75
2022-08-02T05:00:29.887Z,96680.80
2022-08-02T05:02:59.499Z,96681.59
2022-08-02T05:05:27.980Z,96678.83
2022-08-02T05:07:56.314Z,96675.84
2022-08-02T05:10:25.258Z,96687.36
2022-08-02T05:12:53.522Z,96685.27
2022-08-02T05:15:21.800Z,96688.64
2022-08-02T05:17:50.063Z,96690.84
2022-08-02T05:20:19.911Z,96691.73
2022-08-02T05:22:48.231Z,96694.84
2022-08-02T05:25:16.480Z,96697.27
2022-08-02T05:27:44.726Z,96702.20
2022-08-02T05:30:13.547Z,96707.55
2022-08-02T05:32:52.990Z,96703.94
2022-08-02T05:35:23.357Z,96707.17
2022-08-02T05:37:52.574Z,96708.06
2022-08-02T05:40:25.773Z,96710.47
2022-08-02T05:42:56.114Z,96714.33
2022-08-02T05:45:24.469Z,96716.48
2022-08-02T05:47:53.071Z,96717.89
2022-08-02T05:50:22.111Z,96720.44
2022-08-02T05:53:14.827Z,96721.20
2022-08-02T05:55:48.790Z,96727.11
2022-08-02T05:59:03.577Z,96727.15
2022-08-02T06:01:39.314Z,96729.32
2022-08-02T06:04:10.031Z,96734.29
2022-08-02T06:06:43.577Z,96736.32
2022-08-02T06:09:23.135Z,96735.69
2022-08-02T06:12:01.449Z,96737.38
2022-08-02T06:14:34.356Z,96739.04
2022-08-02T06:17:06.387Z,96740.32
2022-08-02T06:19:51.092Z,96743.92
2022-08-02T06:22:35.386Z,96744.17
2022-08-02T06:25:05.526Z,96745.34
2022-08-02T06:27:35.884Z,96747.69
2022-08-02T06:30:05.313Z,96744.83
2022-08-02T06:32:34.896Z,96747.35
2022-08-02T06:35:07.077Z,96740.86
2022-08-02T06:37:59.046Z,96738.35
2022-08-02T06:40:36.195Z,96744.70
2022-08-02T06:43:22.194Z,96747.69
2022-08-02T06:45:50.599Z,96751.95
2022-08-02T06:48:19.098Z,96750.06
2022-08-02T06:50:48.474Z,96746.26
2022-08-02T06:53:16.804Z,96746.13
2022-08-02T06:55:44.940Z,96744.62
2022-08-02T06:58:14.504Z,96747.55
2022-08-02T07:00:44.273Z,96750.55
2022-08-02T07:03:12.623Z,96746.79
2022-08-02T07:05:42.077Z,96743.27
2022-08-02T07:08:10.825Z,96741.83
2022-08-02T07:10:39.181Z,96743.02
2022-08-02T07:13:07.458Z,96745.14
2022-08-02T07:15:35.982Z,96746.45
2022-08-02T07:18:05.215Z,96746.77
2022-08-02T07:20:33.648Z,96745.61
2022-08-02T07:23:01.740Z,96744.77
2022-08-02T07:26:03.139Z,96745.48
2022-08-02T07:28:24.050Z,96746.93
2022-08-02T07:30:52.942Z,96743.32
2022-08-02T07:33:37.884Z,96745.91
2022-08-02T07:36:09.587Z,96742.19
2022-08-02T07:38:41.654Z,96742.35
2022-08-02T07:41:10.245Z,96744.63
2022-08-02T07:43:39.767Z,96749.06
2022-08-02T07:46:08.021Z,96743.77
2022-08-02T07:48:36.224Z,96745.75
2022-08-02T07:51:04.473Z,96745.94
2022-08-02T07:53:51.214Z,96745.59
2022-08-02T07:56:20.233Z,96745.20
2022-08-02T07:58:49.015Z,96743.21
2022-08-02T08:01:17.354Z,96749.60
2022-08-02T08:03:46.325Z,96751.91
2022-08-02T08:06:15.097Z,96751.36
2022-08-02T08:08:44.693Z,96743.27
2022-08-02T08:11:13.498Z,96745.27
2022-08-02T08:13:42.083Z,96744.88
2022-08-02T08:16:10.358Z,96752.66
2022-08-02T08:18:38.735Z,96753.25
2022-08-02T08:21:07.949Z,96758.77
2022-08-02T08:23:37.522Z,96758.33
2022-08-02T08:26:06.154Z,96761.30
2022-08-02T08:28:35.796Z,96762.63
2022-08-02T08:31:04.649Z,96761.66
2022-08-02T08:33:33.515Z,96767.93
2022-08-02T08:36:02.472Z,96767.16
2022-08-02T08:38:31.264Z,96761.36
2022-08-02T08:40:59.820Z,96762.55
2022-08-02T08:43:28.209Z,96761.09
2022-08-02T08:45:57.144Z,96764.30
2022-08-02T08:48:30.810Z,96757.66
2022-08-02T08:51:15.376Z,96754.11
2022-08-02T08:53:48.387Z,96753.81
2022-08-02T08:56:18.113Z,96757.59
2022-08-02T08:58:47.985Z,96759.10
2022-08-02T09:01:17.128Z,96759.80
2022-08-02T09:03:46.179Z,96759.90
2022-08-02T09:06:14.562Z,96758.87
2022-08-02T09:08:42.919Z,96760.61
2022-08-02T09:11:16.874Z,96763.33
2022-08-02T09:14:01.093Z,96763.55
2022-08-02T09:16:39.760Z,96760.22
2022-08-02T09:19:20.835Z,96760.43
2022-08-02T09:21:51.749Z,96757.54
2022-08-02T09:24:22.589Z,96757.19
2022-08-02T09:26:51.951Z,96750.64
2022-08-02T09:29:24.013Z,96755.31
2022-08-02T09:32:02.519Z,96753.54
2022-08-02T09:34:52.563Z,96750.62
2022-08-02T09:37:31.807Z,96750.25
2022-08-02T09:40:01.021Z,96747.33
2022-08-02T09:42:30.822Z,96746.61
2022-08-02T09:45:02.618Z,96747.70
2022-08-02T09:47:31.588Z,96747.89
2022-08-02T09:50:00.773Z,96749.33
2022-08-02T09:52:42.960Z,96745.33
2022-08-02T09:55:13.098Z,96747.32
2022-08-02T09:57:41.434Z,96748.23
2022-08-02T10:00:16.130Z,96746.19
2022-08-02T10:03:21.421Z,96743.92
2022-08-02T10:06:01.212Z,96738.99
2022-08-02T10:08:32.954Z,96738.88
2022-08-02T10:11:02.371Z,96741.84
2022-08-02T10:13:33.185Z,96735.45
2022-08-02T10:16:02.884Z,96734.01
2022-08-02T10:18:40.848Z,96730.91
2022-08-02T10:21:19.772Z,96727.56
2022-08-02T10:23:50.213Z,96724.77
2022-08-02T10:26:20.632Z,96724.19
2022-08-02T10:28:50.221Z,96725.29
2022-08-02T10:31:23.859Z,96722.11
2022-08-02T10:33:54.528Z,96724.19
2022-08-02T10:36:27.244Z,96725.61
2022-08-02T10:38:58.897Z,96721.23
2022-08-02T10:41:43.680Z,96712.27
2022-08-02T10:44:29.008Z,96707.66
2022-08-02T10:47:18.736Z,96709.10
2022-08-02T10:50:01.408Z,96710.81
2022-08-02T10:52:33.239Z,96706.73
2022-08-02T10:55:22.407Z,96704.77
2022-08-02T10:58:19.406Z,96705.80
2022-08-02T11:00:49.062Z,96699.27
2022-08-02T11:03:29.631Z,96697.64
2022-08-02T11:06:05.069Z,96699.91
2022-08-02T11:08:34.205Z,96700.80
2022-08-02T11:11:11.807Z,96691.43
2022-08-02T11:14:03.416Z,96691.48
2022-08-02T11:16:56.838Z,96688.73
2022-08-02T11:19:27.392Z,96691.12
2022-08-02T11:22:02.332Z,96685.98
2022-08-02T11:24:35.251Z,96687.40
2022-08-02T11:27:05.951Z,96686.78
2022-08-02T11:29:45.727Z,96687.50
2022-08-02T11:32:30.575Z,96679.55
2022-08-02T11:35:03.487Z,96680.28
2022-08-02T11:37:37.222Z,96681.39
2022-08-02T11:40:18.984Z,96686.17
2022-08-02T11:42:53.970Z,96686.30
2022-08-02T11:45:29.664Z,96689.59
2022-08-02T11:47:58.583Z,96688.30
2022-08-02T11:50:29.603Z,96689.09
2022-08-02T11:52:58.947Z,96686.15
2022-08-02T11:55:29.810Z,96686.69
2022-08-02T11:58:04.553Z,96690.89
2022-08-02T12:00:34.493Z,96692.95
2022-08-02T12:03:02.829Z,96690.34
2022-08-02T12:06:04.541Z,96688.09
2022-08-02T12:08:25.345Z,96687.63
2022-08-02T12:10:53.963Z,96688.27
2022-08-02T12:13:22.676Z,96683.06
2022-08-02T12:15:51.071Z,96686.64
2022-08-02T12:18:40.300Z,96686.25
2022-08-02T12:21:24.421Z,96683.46
2022-08-02T12:23:58.777Z,96685.58
2022-08-02T12:26:30.656Z,96689.24
2022-08-02T12:28:59.756Z,96685.91
2022-08-02T12:31:57.285Z,96691.94
2022-08-02T12:34:31.874Z,96687.11
2022-08-02T12:37:07.747Z,96689.09
2022-08-02T12:39:45.070Z,96692.05
2022-08-02T12:42:16.145Z,96692.38
2022-08-02T12:44:59.689Z,96689.13
2022-08-02T12:47:35.825Z,96684.81
2022-08-02T12:50:13.836Z,96681.11
2022-08-02T12:52:42.668Z,96683.52
2022-08-02T12:56:02.024Z,96685.39
2022-08-02T12:58:15.112Z,96688.59
2022-08-02T13:01:00.056Z,96685.30
2022-08-02T13:04:09.110Z,96684.48
2022-08-02T13:09:17.510Z,96679.48
2022-08-02T13:11:47.622Z,96684.17
2022-08-02T13:14:16.144Z,96687.13
2022-08-02T13:16:53.908Z,96686.17
2022-08-02T13:19:22.352Z,96684.46
2022-08-02T13:22:11.314Z,96684.19
2022-08-02T13:24:55.572Z,96685.30
2022-08-02T13:27:26.885Z,96686.85
2022-08-02T13:29:57.191Z,96689.98
2022-08-02T13:32:28.040Z,96683.12
2022-08-02T13:34:58.095Z,96680.13
2022-08-02T13:37:27.589Z,96689.33
2022-08-02T13:40:19.176Z,96691.36
2022-08-02T13:42:44.880Z,96689.60
2022-08-02T13:45:14.103Z,96688.65
2022-08-02T13:48:04.749Z,96685.73
2022-08-02T13:50:34.468Z,96688.64
2022-08-02T13:53:02.858Z,96692.27
2022-08-02T13:55:32.603Z,96686.38
2022-08-02T13:58:00.870Z,96684.83
2022-08-02T14:00:35.207Z,96692.25
2022-08-02T14:03:12.314Z,96693.52
2022-08-02T14:05:48.217Z,96691.10
2022-08-02T14:08:19.655Z,96689.67
2022-08-02T14:10:49.607Z,96690.13
2022-08-02T14:13:19.561Z,96681.31
2022-08-02T14:15:48.976Z,96684.16
2022-08-02T14:18:18.330Z,96689.14
2022-08-02T14:20:46.864Z,96689.48
2022-08-02T14:23:15.275Z,96690.23
2022-08-02T14:25:43.862Z,96689.50
2022-08-02T14:28:12.207Z,96686.80
2022-08-02T14:30:40.713Z,96692.58
2022-08-02T14:33:09.121Z,96698.16
2022-08-02T14:35:37.534Z,96694.45
2022-08-02T14:38:06.135Z,96694.64
2022-08-02T14:40:35.157Z,96691.59
2022-08-02T14:43:04.481Z,96690.58
2022-08-02T14:45:41.009Z,96688.63
2022-08-02T14:48:12.494Z,96686.90
2022-08-02T14:50:43.679Z,96682.21
2022-08-02T14:53:13.150Z,96685.18
2022-08-02T14:55:43.144Z,96685.59
2022-08-02T14:58:14.000Z,96685.52
2022-08-02T15:00:43.914Z,96684.91
2022-08-02T15:03:12.800Z,96688.02
2022-08-02T15:05:41.344Z,96688.87
2022-08-02T15:08:09.610Z,96689.19
2022-08-02T15:10:38.042Z,96692.31
2022-08-02T15:13:07.443Z,96694.80
2022-08-02T15:15:43.010Z,96692.30
2022-08-02T15:18:14.378Z,96691.67
2022-08-02T15:20:46.270Z,96692.41
2022-08-02T15:23:37.457Z,96691.64
2022-08-02T15:26:07.334Z,96689.08
2022-08-02T15:28:35.790Z,96687.02
2022-08-02T15:31:04.742Z,96690.43
2022-08-02T15:33:33.205Z,96692.98
2022-08-02T15:36:01.685Z,96688.09
2022-08-02T15:38:30.531Z,96693.54
2022-08-02T15:40:59.020Z,96694.52
2022-08-02T15:43:27.551Z,96691.08
2022-08-02T15:46:00.434Z,96689.90
2022-08-02T15:48:29.115Z,96693.48
2022-08-02T15:50:58.423Z,96692.27
2022-08-02T15:53:26.798Z,96690.83
2022-08-02T15:56:05.508Z,96696.16
2022-08-02T15:58:44.531Z,96702.29
2022-08-02T16:01:13.093Z,96701.89
2022-08-02T16:03:41.501Z,96699.77
2022-08-02T16:06:11.117Z,96697.30
2022-08-02T16:08:39.460Z,96697.02
2022-08-02T16:11:16.521Z,96695.26
2022-08-02T16:13:53.552Z,96689.55
2022-08-02T16:16:25.556Z,96698.62
2022-08-02T16:18:55.040Z,96705.98
2022-08-02T16:21:24.905Z,96708.70
2022-08-02T16:23:59.183Z,96710.43
2022-08-02T16:26:34.795Z,96712.95
2022-08-02T16:29:05.360Z,96713.80
2022-08-02T16:31:34.415Z,96718.92
2022-08-02T16:34:04.945Z,96723.79
2022-08-02T16:36:33.162Z,96726.08
2022-08-02T16:39:01.945Z,96725.73
2022-08-02T16:41:50.716Z,96731.01
2022-08-02T16:44:26.769Z,96731.86
2022-08-02T16:47:00.680Z,96731.29
2022-08-02T16:50:07.193Z,96733.12
2022-08-02T16:52:19.758Z,96734.47
2022-08-02T16:54:49.923Z,96736.86
2022-08-02T16:57:19.875Z,96735.25
2022-08-02T16:59:57.328Z,96731.37
2022-08-02T17:02:27.942Z,96734.75
2022-08-02T17:04:56.938Z,96739.77
2022-08-02T17:10:14.213Z,96743.52
2022-08-02T17:12:51.186Z,96743.79
2022-08-02T17:18:09.197Z,96743.39
2022-08-02T17:20:37.711Z,96744.34
2022-08-02T17:23:09.174Z,96744.25
2022-08-02T17:25:45.101Z,96748.95
2022-08-02T17:28:21.209Z,96749.84
2022-08-02T17:31:00.544Z,96749.69
2022-08-02T17:33:29.109Z,96752.42
2022-08-02T17:36:00.210Z,96757.45
2022-08-02T17:38:28.599Z,96757.48
2022-08-02T17:40:57.697Z,96754.86
2022-08-02T17:43:29.452Z,96753.50
2022-08-02T17:46:00.147Z,96755.06
2022-08-02T17:48:55.130Z,96760.60
2022-08-02T17:54:13.789Z,96764.71
2022-08-02T17:56:42.522Z,96760.73
2022-08-02T17:59:20.824Z,96762.39
2022-08-02T18:01:58.700Z,96765.27
2022-08-02T18:04:31.895Z,96765.31
2022-08-02T18:07:04.477Z,96768.09
2022-08-02T18:09:43.470Z,96769.74
2022-08-02T18:12:18.419Z,96775.52
2022-08-02T18:14:49.045Z,96775.64
2022-08-02T18:17:20.154Z,96777.20
2022-08-02T18:22:09.220Z,96776.20
2022-08-02T18:24:40.723Z,96779.88
2022-08-02T18:27:09.573Z,96782.58
2022-08-02T18:29:38.729Z,96780.10
2022-08-02T18:32:11.819Z,96786.70
2022-08-02T18:34:40.961Z,96795.23
2022-08-02T18:37:16.055Z,96799.27
2022-08-02T18:39:51.353Z,96805.35
2022-08-02T18:42:20.627Z,96811.09
2022-08-02T18:44:48.838Z,96808.71
2022-08-02T18:47:17.074Z,96809.21
2022-08-02T18:49:46.543Z,96810.56
2022-08-02T18:52:27.453Z,96813.02
2022-08-02T18:54:59.918Z,96810.75
2022-08-02T18:58:17.001Z,96812.84
2022-08-02T19:00:17.237Z,96812.40
2022-08-02T19:02:48.853Z,96818.33
2022-08-02T19:05:17.107Z,96818.16
2022-08-02T19:10:39.322Z,96819.77
2022-08-02T19:13:18.583Z,96816.83
2022-08-02T19:15:47.836Z,96817.73
2022-08-02T19:18:16.324Z,96820.22
2022-08-02T19:20:48.261Z,96821.69
2022-08-02T19:23:17.214Z,96820.33
2022-08-02T19:25:50.184Z,96816.07
2022-08-02T19:28:26.424Z,96818.11
2022-08-02T19:30:56.789Z,96820.05
2022-08-02T19:34:05.979Z,96818.19
2022-08-02T19:36:13.371Z,96820.71
2022-08-02T19:38:45.851Z,96823.51
2022-08-02T19:41:18.034Z,96826.59
2022-08-02T19:44:23.517Z,96829.58
2022-08-02T19:46:41.507Z,96828.92
2022-08-02T19:49:16.696Z,96828.83
2022-08-02T19:51:58.417Z,96828.07
2022-08-02T19:54:54.638Z,96831.48
2022-08-02T19:57:19.501Z,96834.94
2022-08-02T19:59:48.097Z,96833.82
2022-08-02T20:02:18.976Z,96836.82
2022-08-02T20:04:50.247Z,96832.92
2022-08-02T20:07:55.246Z,96833.77
2022-08-02T20:10:11.090Z,96831.02
2022-08-02T20:12:59.436Z,96826.21
2022-08-02T20:15:56.161Z,96823.84
2022-08-02T20:18:26.584Z,96825.63
2022-08-02T20:20:55.680Z,96828.94
2022-08-02T20:23:33.038Z,96829.77
2022-08-02T20:26:02.525Z,96831.21
2022-08-02T20:28:31.261Z,96827.77
2022-08-02T20:31:07.029Z,96830.48
2022-08-02T20:33:35.890Z,96829.02
2022-08-02T20:36:25.678Z,96828.48
2022-08-02T20:38:55.011Z,96824.98
2022-08-02T20:41:37.194Z,96819.98
2022-08-02T20:44:16.262Z,96822.54
2022-08-02T20:46:59.962Z,96820.58
2022-08-02T20:49:41.471Z,96822.58
2022-08-02T20:52:23.255Z,96820.41
2022-08-02T20:54:53.006Z,96820.23
2022-08-02T20:57:48.851Z,96825.25
2022-08-02T21:00:10.780Z,96824.26
2022-08-02T21:02:39.750Z,96821.94
2022-08-02T21:05:17.579Z,96818.33
2022-08-02T21:09:57.037Z,96824.89
2022-08-02T21:12:30.111Z,96831.46
2022-08-02T21:14:59.635Z,96833.11
2022-08-02T21:17:44.163Z,96835.55
2022-08-02T21:20:16.854Z,96835.02
2022-08-02T21:22:45.694Z,96834.78
2022-08-02T21:25:15.803Z,96839.25
2022-08-02T21:27:52.010Z,96839.55
2022-08-02T21:30:24.394Z,96840.69
2022-08-02T21:32:55.077Z,96839.23
2022-08-02T21:35:25.396Z,96838.38
2022-08-02T21:37:58.355Z,96840.05
2022-08-02T21:40:27.052Z,96842.77
2022-08-02T21:42:55.640Z,96848.40
2022-08-02T21:45:23.828Z,96848.39
2022-08-02T21:47:56.895Z,96842.30
2022-08-02T21:50:25.020Z,96841.83
2022-08-02T21:52:53.825Z,96842.84
2022-08-02T21:55:24.327Z,96848.35
2022-08-02T21:58:10.741Z,96847.05
2022-08-02T22:00:50.570Z,96847.48
2022-08-02T22:03:22.600Z,96846.17
2022-08-02T22:05:52.049Z,96843.23
2022-08-02T22:08:27.316Z,96847.92
2022-08-02T22:11:03.860Z,96846.64
2022-08-02T22:13:38.678Z,96844.31
2022-08-02T22:16:18.535Z,96847.02
2022-08-02T22:18:52.476Z,96850.38
2022-08-02T22:21:27.693Z,96847.51
2022-08-02T22:24:19.319Z,96852.14
2022-08-02T22:26:47.928Z,96855.27
2022-08-02T22:29:19.801Z,96852.73
2022-08-02T22:31:48.652Z,96852.39
2022-08-02T22:34:37.240Z,96853.86
2022-08-02T22:37:09.071Z,96852.94
2022-08-02T22:40:08.559Z,96855.13
2022-08-02T22:42:40.122Z,96856.43
2022-08-02T22:45:09.874Z,96857.23
2022-08-02T22:47:38.773Z,96854.80
2022-08-02T22:50:19.400Z,96856.36
2022-08-02T22:52:50.183Z,96855.04
2022-08-02T22:55:19.332Z,96855.96
2022-08-02T22:57:50.613Z,96858.95
2022-08-02T22:58:49.365Z,96740.76
2022-08-02T22:58:50.217Z,96743.93
2022-08-02T22:58:51.415Z,96762.45
2022-08-02T22:58:59.555Z,96819.39
2022-08-02T23:00:26.406Z,96858.47
2022-08-02T23:02:54.779Z,96862.46
2022-08-02T23:05:23.637Z,96866.14
2022-08-02T23:07:52.506Z,96870.80
2022-08-02T23:10:20.926Z,96870.27
2022-08-02T23:12:49.535Z,96865.67
2022-08-02T23:15:17.649Z,96860.48
2022-08-02T23:18:04.218Z,96861.17
2022-08-02T23:20:32.959Z,96865.80
2022-08-02T23:23:01.099Z,96866.73
2022-08-02T23:25:29.333Z,96866.84
2022-08-02T23:27:57.671Z,96870.71
2022-08-02T23:30:25.816Z,96867.38
2022-08-02T23:32:53.988Z,96870.35
2022-08-02T23:35:22.251Z,96872.80
2022-08-02T23:37:59.248Z,96872.33
2022-08-02T23:40:40.497Z,96870.95
2022-08-02T23:43:15.053Z,96871.01
2022-08-02T23:45:45.499Z,96872.50
2022-08-02T23:48:13.999Z,96872.14
2022-08-02T23:50:42.444Z,96873.31
2022-08-02T23:53:10.744Z,96868.98
2022-08-02T23:55:39.614Z,96861.52
2022-08-02T23:58:08.420Z,96861.25
